Time,TemperatureF,DewpointF,PressureIn,WindDirection,WindDirectionDegrees,WindSpeedMPH,WindSpeedGustMPH,Humidity,HourlyPrecipIn,Conditions,Clouds,dailyrainin,SoftwareType,DateUTC
2013-04-09 00:00:00,48.0,47.0,30.27,South,190,14.0,15.0,94,-99.99,,,-99.99,,2013-04-09 07:00:00,
2013-04-09 00:21:00,48.0,47.0,30.27,South,190,14.0,15.0,94,-99.99,,,-99.99,,2013-04-09 07:21:00,
2013-04-09 00:32:00,48.0,47.0,30.27,South,190,14.0,15.0,94,-99.99,,,-99.99,,2013-04-09 07:32:00,
2013-04-09 00:41:00,48.0,47.0,30.27,South,190,14.0,15.0,94,-99.99,,,-99.99,,2013-04-09 07:41:00,
2013-04-09 00:52:00,48.0,47.0,30.27,South,190,14.0,15.0,94,-99.99,,,-99.99,,2013-04-09 07:52:00,
2013-04-09 01:00:00,47.0,46.0,30.29,South,180,13.0,14.0,97,-99.99,,,-99.99,,2013-04-09 08:00:00,
2013-04-09 01:21:00,47.0,46.0,30.29,South,180,13.0,14.0,97,-99.99,,,-99.99,,2013-04-09 08:21:00,
2013-04-09 01:32:00,47.0,46.0,30.29,South,180,13.0,14.0,97,-99.99,,,-99.99,,2013-04-09 08:32:00,
2013-04-09 01:42:00,47.0,46.0,30.29,South,180,13.0,14.0,97,-99.99,,,-99.99,,2013-04-09 08:42:00,
2013-04-09 01:51:00,47.0,46.0,30.29,South,180,13.0,14.0,97,-99.99,,,-99.99,,2013-04-09 08:51:00,
2013-04-09 02:00:00,46.0,46.0,30.31,South,180,13.0,15.0,99,-99.99,,,-99.99,,2013-04-09 09:00:00,
2013-04-09 02:21:00,46.0,46.0,30.31,South,180,13.0,15.0,99,-99.99,,,-99.99,,2013-04-09 09:21:00,
2013-04-09 02:32:00,46.0,46.0,30.31,South,180,13.0,15.0,99,-99.99,,,-99.99,,2013-04-09 09:32:00,
2013-04-09 02:43:00,46.0,46.0,30.31,South,180,13.0,15.0,99,-99.99,,,-99.99,,2013-04-09 09:43:00,
2013-04-09 02:52:00,46.0,46.0,30.31,South,180,13.0,15.0,99,-99.99,,,-99.99,,2013-04-09 09:52:00,
2013-04-09 03:00:00,46.0,45.0,30.30,South,180,14.0,16.0,97,-99.99,,,-99.99,,2013-04-09 10:00:00,
2013-04-09 03:32:00,46.0,45.0,30.30,South,180,14.0,16.0,97,-99.99,,,-99.99,,2013-04-09 10:32:00,
2013-04-09 03:42:00,46.0,45.0,30.30,South,180,14.0,16.0,97,-99.99,,,-99.99,,2013-04-09 10:42:00,
2013-04-09 03:52:00,46.0,45.0,30.30,South,180,14.0,16.0,97,-99.99,,,-99.99,,2013-04-09 10:52:00,
2013-04-09 04:00:00,46.0,45.0,30.31,South,180,14.0,15.0,98,-99.99,,,-99.99,,2013-04-09 11:00:00,
2013-04-09 04:22:00,46.0,45.0,30.31,South,180,14.0,15.0,98,-99.99,,,-99.99,,2013-04-09 11:22:00,
2013-04-09 04:32:00,46.0,45.0,30.31,South,180,14.0,15.0,98,-99.99,,,-99.99,,2013-04-09 11:32:00,
2013-04-09 04:41:00,46.0,45.0,30.31,South,180,14.0,15.0,98,-99.99,,,-99.99,,2013-04-09 11:41:00,
2013-04-09 04:51:00,46.0,45.0,30.31,South,180,14.0,15.0,98,-99.99,,,-99.99,,2013-04-09 11:51:00,
2013-04-09 05:00:00,45.0,45.0,30.32,South,180,13.0,15.0,100,-99.99,,,-99.99,,2013-04-09 12:00:00,
2013-04-09 05:21:00,45.0,45.0,30.32,South,180,13.0,15.0,100,-99.99,,,-99.99,,2013-04-09 12:21:00,
2013-04-09 05:41:00,45.0,45.0,30.32,South,180,13.0,15.0,100,-99.99,,,-99.99,,2013-04-09 12:41:00,
2013-04-09 05:51:00,45.0,45.0,30.32,South,180,13.0,15.0,100,-99.99,,,-99.99,,2013-04-09 12:51:00,
2013-04-09 06:32:00,45.0,45.0,30.32,SSE,160,13.0,14.0,100,-99.99,,,-99.99,,2013-04-09 13:32:00,
2013-04-09 06:41:00,45.0,45.0,30.32,SSE,160,13.0,14.0,100,-99.99,,,-99.99,,2013-04-09 13:41:00,
2013-04-09 06:52:00,45.0,45.0,30.32,SSE,160,13.0,14.0,100,-99.99,,,-99.99,,2013-04-09 13:52:00,
2013-04-09 07:21:00,45.0,45.0,30.33,South,170,13.0,15.0,99,-99.99,,,-99.99,,2013-04-09 14:21:00,
2013-04-09 07:31:00,45.0,45.0,30.33,South,170,13.0,15.0,99,-99.99,,,-99.99,,2013-04-09 14:31:00,
2013-04-09 07:41:00,45.0,45.0,30.33,South,170,13.0,15.0,99,-99.99,,,-99.99,,2013-04-09 14:41:00,
2013-04-09 07:51:00,45.0,45.0,30.33,South,170,13.0,15.0,99,-99.99,,,-99.99,,2013-04-09 14:51:00,
2013-04-09 08:00:00,45.0,45.0,30.34,South,170,10.0,11.0,98,-99.99,,,-99.99,,2013-04-09 15:00:00,
2013-04-09 08:21:00,45.0,45.0,30.34,South,170,10.0,11.0,98,-99.99,,,-99.99,,2013-04-09 15:21:00,
2013-04-09 08:32:00,45.0,45.0,30.34,South,170,10.0,11.0,98,-99.99,,,-99.99,,2013-04-09 15:32:00,
2013-04-09 08:42:00,45.0,45.0,30.34,South,170,10.0,11.0,98,-99.99,,,-99.99,,2013-04-09 15:42:00,
2013-04-09 08:52:00,45.0,45.0,30.34,South,170,10.0,11.0,98,-99.99,,,-99.99,,2013-04-09 15:52:00,
2013-04-09 09:00:00,46.0,45.0,30.34,South,190,11.0,14.0,99,-99.99,,,-99.99,,2013-04-09 16:00:00,
2013-04-09 09:22:00,46.0,45.0,30.34,South,190,11.0,14.0,99,-99.99,,,-99.99,,2013-04-09 16:22:00,
2013-04-09 09:32:00,46.0,45.0,30.34,South,190,11.0,14.0,99,-99.99,,,-99.99,,2013-04-09 16:32:00,
2013-04-09 09:41:00,46.0,45.0,30.34,South,190,11.0,14.0,99,-99.99,,,-99.99,,2013-04-09 16:41:00,
2013-04-09 09:52:00,46.0,45.0,30.34,South,190,11.0,14.0,99,-99.99,,,-99.99,,2013-04-09 16:52:00,
2013-04-09 10:22:00,46.0,45.0,30.34,South,180,13.0,14.0,96,-99.99,,,-99.99,,2013-04-09 17:22:00,
2013-04-09 10:31:00,46.0,45.0,30.34,South,180,13.0,14.0,96,-99.99,,,-99.99,,2013-04-09 17:31:00,
2013-04-09 10:42:00,46.0,45.0,30.34,South,180,13.0,14.0,96,-99.99,,,-99.99,,2013-04-09 17:42:00,
2013-04-09 10:52:00,46.0,45.0,30.34,South,180,13.0,14.0,96,-99.99,,,-99.99,,2013-04-09 17:52:00,
2013-04-09 11:00:00,47.0,45.0,30.35,South,170,11.0,13.0,92,-99.99,,,-99.99,,2013-04-09 18:00:00,
2013-04-09 11:21:00,47.0,45.0,30.35,South,170,11.0,13.0,92,-99.99,,,-99.99,,2013-04-09 18:21:00,
2013-04-09 11:32:00,47.0,45.0,30.35,South,170,11.0,13.0,92,-99.99,,,-99.99,,2013-04-09 18:32:00,
2013-04-09 11:42:00,47.0,45.0,30.35,South,170,11.0,13.0,92,-99.99,,,-99.99,,2013-04-09 18:42:00,
2013-04-09 11:51:00,47.0,45.0,30.35,South,170,11.0,13.0,92,-99.99,,,-99.99,,2013-04-09 18:51:00,
2013-04-09 12:00:00,48.0,45.0,30.35,SSE,160,13.0,15.0,87,-99.99,,,-99.99,,2013-04-09 19:00:00,
2013-04-09 12:31:00,48.0,45.0,30.35,SSE,160,13.0,15.0,87,-99.99,,,-99.99,,2013-04-09 19:31:00,
2013-04-09 12:51:00,48.0,45.0,30.35,SSE,160,13.0,15.0,87,-99.99,,,-99.99,,2013-04-09 19:51:00,
2013-04-09 13:00:00,49.0,44.0,30.34,SSE,160,13.0,13.0,83,-99.99,,,-99.99,,2013-04-09 20:00:00,
2013-04-09 13:21:00,49.0,44.0,30.34,SSE,160,13.0,13.0,83,-99.99,,,-99.99,,2013-04-09 20:21:00,
2013-04-09 13:31:00,49.0,44.0,30.34,SSE,160,13.0,13.0,83,-99.99,,,-99.99,,2013-04-09 20:31:00,
2013-04-09 13:42:00,49.0,44.0,30.34,SSE,160,13.0,13.0,83,-99.99,,,-99.99,,2013-04-09 20:42:00,
2013-04-09 13:51:00,49.0,44.0,30.34,SSE,160,13.0,13.0,83,-99.99,,,-99.99,,2013-04-09 20:51:00,
2013-04-09 14:00:00,49.0,44.0,30.33,South,190,14.0,14.0,81,-99.99,,,-99.99,,2013-04-09 21:00:00,
2013-04-09 14:32:00,49.0,44.0,30.33,South,190,14.0,14.0,81,-99.99,,,-99.99,,2013-04-09 21:32:00,
2013-04-09 14:41:00,49.0,44.0,30.33,South,190,14.0,14.0,81,-99.99,,,-99.99,,2013-04-09 21:41:00,
2013-04-09 14:52:00,49.0,44.0,30.33,South,190,14.0,14.0,81,-99.99,,,-99.99,,2013-04-09 21:52:00,
2013-04-09 15:00:00,49.0,45.0,30.32,SSE,160,13.0,14.0,84,-99.99,,,-99.99,,2013-04-09 22:00:00,
2013-04-09 15:22:00,49.0,45.0,30.32,SSE,160,13.0,14.0,84,-99.99,,,-99.99,,2013-04-09 22:22:00,
2013-04-09 15:32:00,49.0,45.0,30.32,SSE,160,13.0,14.0,84,-99.99,,,-99.99,,2013-04-09 22:32:00,
2013-04-09 15:42:00,49.0,45.0,30.32,SSE,160,13.0,14.0,84,-99.99,,,-99.99,,2013-04-09 22:42:00,
2013-04-09 15:52:00,49.0,45.0,30.32,SSE,160,13.0,14.0,84,-99.99,,,-99.99,,2013-04-09 22:52:00,
2013-04-09 16:00:00,51.0,44.0,30.29,SSE,160,11.0,13.0,75,-99.99,,,-99.99,,2013-04-09 23:00:00,
2013-04-09 16:22:00,51.0,44.0,30.29,SSE,160,11.0,13.0,75,-99.99,,,-99.99,,2013-04-09 23:22:00,
2013-04-09 16:31:00,51.0,44.0,30.29,SSE,160,11.0,13.0,75,-99.99,,,-99.99,,2013-04-09 23:31:00,
2013-04-09 16:41:00,51.0,44.0,30.29,SSE,160,11.0,13.0,75,-99.99,,,-99.99,,2013-04-09 23:41:00,
2013-04-09 16:51:00,51.0,44.0,30.29,SSE,160,11.0,13.0,75,-99.99,,,-99.99,,2013-04-09 23:51:00,
2013-04-09 17:00:00,51.0,44.0,30.29,South,170,15.0,15.0,75,-99.99,,,-99.99,,2013-04-10 00:00:00,
2013-04-09 17:32:00,51.0,44.0,30.29,South,170,15.0,15.0,75,-99.99,,,-99.99,,2013-04-10 00:32:00,
2013-04-09 17:41:00,51.0,44.0,30.29,South,170,15.0,15.0,75,-99.99,,,-99.99,,2013-04-10 00:41:00,
2013-04-09 17:51:00,51.0,44.0,30.29,South,170,15.0,15.0,75,-99.99,,,-99.99,,2013-04-10 00:51:00,
2013-04-09 18:00:00,51.0,44.0,30.28,South,170,14.0,15.0,75,-99.99,,,-99.99,,2013-04-10 01:00:00,
2013-04-09 18:21:00,51.0,44.0,30.28,South,170,14.0,15.0,75,-99.99,,,-99.99,,2013-04-10 01:21:00,
2013-04-09 18:31:00,51.0,44.0,30.28,South,170,14.0,15.0,75,-99.99,,,-99.99,,2013-04-10 01:31:00,
2013-04-09 18:41:00,51.0,44.0,30.28,South,170,14.0,15.0,75,-99.99,,,-99.99,,2013-04-10 01:41:00,
2013-04-09 18:52:00,51.0,44.0,30.28,South,170,14.0,15.0,75,-99.99,,,-99.99,,2013-04-10 01:52:00,
2013-04-09 19:00:00,52.0,44.0,30.25,SSE,160,15.0,16.0,74,-99.99,,,-99.99,,2013-04-10 02:00:00,
2013-04-09 19:21:00,52.0,44.0,30.25,SSE,160,15.0,16.0,74,-99.99,,,-99.99,,2013-04-10 02:21:00,
2013-04-09 19:31:00,52.0,44.0,30.25,SSE,160,15.0,16.0,74,-99.99,,,-99.99,,2013-04-10 02:31:00,
2013-04-09 19:42:00,52.0,44.0,30.25,SSE,160,15.0,16.0,74,-99.99,,,-99.99,,2013-04-10 02:42:00,
2013-04-09 19:51:00,52.0,44.0,30.25,SSE,160,15.0,16.0,74,-99.99,,,-99.99,,2013-04-10 02:51:00,
2013-04-09 20:00:00,52.0,44.0,30.24,SSE,160,15.0,17.0,73,-99.99,,,-99.99,,2013-04-10 03:00:00,
2013-04-09 20:21:00,52.0,44.0,30.24,SSE,160,15.0,17.0,73,-99.99,,,-99.99,,2013-04-10 03:21:00,
2013-04-09 20:32:00,52.0,44.0,30.24,SSE,160,15.0,17.0,73,-99.99,,,-99.99,,2013-04-10 03:32:00,
2013-04-09 20:43:00,52.0,44.0,30.24,SSE,160,15.0,17.0,73,-99.99,,,-99.99,,2013-04-10 03:43:00,
2013-04-09 20:52:00,52.0,44.0,30.24,SSE,160,15.0,17.0,73,-99.99,,,-99.99,,2013-04-10 03:52:00,
2013-04-09 21:00:00,52.0,43.0,30.23,South,170,16.0,18.0,70,-99.99,,,-99.99,,2013-04-10 04:00:00,
2013-04-09 21:22:00,52.0,43.0,30.23,South,170,16.0,18.0,70,-99.99,,,-99.99,,2013-04-10 04:22:00,
2013-04-09 21:32:00,52.0,43.0,30.23,South,170,16.0,18.0,70,-99.99,,,-99.99,,2013-04-10 04:32:00,
2013-04-09 21:42:00,52.0,43.0,30.23,South,170,16.0,18.0,70,-99.99,,,-99.99,,2013-04-10 04:42:00,
2013-04-09 21:52:00,52.0,43.0,30.23,South,170,16.0,18.0,70,-99.99,,,-99.99,,2013-04-10 04:52:00,
2013-04-09 22:00:00,50.0,45.0,30.22,South,170,16.0,17.0,85,-99.99,,,-99.99,,2013-04-10 05:00:00,
2013-04-09 22:22:00,50.0,45.0,30.22,South,170,16.0,17.0,85,-99.99,,,-99.99,,2013-04-10 05:22:00,
2013-04-09 22:32:00,50.0,45.0,30.22,South,170,16.0,17.0,85,-99.99,,,-99.99,,2013-04-10 05:32:00,
2013-04-09 22:42:00,50.0,45.0,30.22,South,170,16.0,17.0,85,-99.99,,,-99.99,,2013-04-10 05:42:00,
2013-04-09 22:52:00,50.0,45.0,30.22,South,170,16.0,17.0,85,-99.99,,,-99.99,,2013-04-10 05:52:00,
2013-04-09 23:21:00,51.0,45.0,30.21,South,190,18.0,20.0,81,-99.99,,,-99.99,,2013-04-10 06:21:00,
2013-04-09 23:31:00,51.0,45.0,30.21,South,190,18.0,20.0,81,-99.99,,,-99.99,,2013-04-10 06:31:00,
2013-04-09 23:41:00,51.0,45.0,30.21,South,190,18.0,20.0,81,-99.99,,,-99.99,,2013-04-10 06:41:00,
2013-04-09 23:51:00,51.0,45.0,30.21,South,190,18.0,20.0,81,-99.99,,,-99.99,,2013-04-10 06:51:00,